Overview Statistics Trail Chart Weather Telemetry Raw packets
 

This is the latest recevied weather packets stored in our database for station/object N7ZEF. If no packets are shown the sender has not sent any weather packets the latest 10 day(s).

<< 32 33 34 35 36 37 38 >>
Time Temp. Humidity Pressure Rain* Wind** Luminosity Snow
1777684482 12.78° C 23% 1022.3 hPa 0 mm - - -
1777683880 13.33° C 23% 1022.3 hPa 0 mm - - -
1777683279 13.33° C 23% 1022.3 hPa 0 mm - - -
1777682678 13.33° C 23% 1022.3 hPa 0 mm - - -
1777682076 13.33° C 23% 1022.3 hPa 0 mm - - -
1777681475 12.78° C 24% 1022.3 hPa 0 mm - - -
1777680874 12.22° C 24% 1022.3 hPa 0 mm - - -
1777680272 12.22° C 25% 1022.3 hPa 0 mm - - -
1777679671 12.22° C 25% 1022.3 hPa 0 mm - - -
1777679069 12.22° C 25% 1022.3 hPa 0 mm - - -
1777678468 12.78° C 25% 1022.5 hPa 0 mm - - -
1777677867 12.22° C 24% 1022.6 hPa 0 mm - - -
1777677265 12.22° C 24% 1022.5 hPa 0 mm - - -
1777676664 12.22° C 24% 1022.5 hPa 0 mm - - -
1777676063 12.78° C 24% 1022.5 hPa 0 mm - - -
1777675461 12.78° C 21% 1022.5 hPa 0 mm - - -
1777674860 13.89° C 21% 1022.6 hPa 0 mm - - -
1777674258 13.33° C 22% 1022.6 hPa 0 mm - - -
1777673657 12.78° C 22% 1022.7 hPa 0 mm - - -
1777673056 13.33° C 22% 1022.9 hPa 0 mm - - -
1777672454 12.78° C 24% 1023 hPa 0 mm - - -
1777671853 14.44° C 22% 1023.1 hPa 0 mm - - -
1777671252 13.89° C 21% 1023.2 hPa 0 mm - - -
1777670650 12.78° C 25% 1023.5 hPa 0 mm - - -
1777670049 13.33° C 23% 1023.5 hPa 0 mm - - -

* Rain latest hour (hover to see other rain measurements)
** Current wind speed in m/s (hover to see current wind gust speed)